sensor_id;sensor_type;location;lat;lon;timestamp;P1;durP1;ratioP1;P2;durP2;ratioP2
22254;SDS011;11296;42.684;23.322;2022-09-01T03:56:12;20.13;;;17.83;;
22254;SDS011;11296;42.684;23.322;2022-09-01T03:59:01;23.10;;;18.27;;
22254;SDS011;11296;42.684;23.322;2022-09-01T04:05:37;20.80;;;18.60;;
22254;SDS011;11296;42.684;23.322;2022-09-01T04:08:28;21.70;;;19.37;;
22254;SDS011;11296;42.684;23.322;2022-09-01T04:11:11;26.63;;;21.77;;
22254;SDS011;11296;42.684;23.322;2022-09-01T04:13:52;29.30;;;22.40;;
22254;SDS011;11296;42.684;23.322;2022-09-01T04:16:31;28.50;;;22.23;;
22254;SDS011;11296;42.684;23.322;2022-09-01T04:22:13;28.80;;;22.80;;
22254;SDS011;11296;42.684;23.322;2022-09-01T04:24:43;28.73;;;21.67;;
22254;SDS011;11296;42.684;23.322;2022-09-01T04:27:10;33.63;;;27.67;;
22254;SDS011;11296;42.684;23.322;2022-09-01T04:29:36;25.77;;;22.40;;
22254;SDS011;11296;42.684;23.322;2022-09-01T04:32:06;26.13;;;22.23;;
22254;SDS011;11296;42.684;23.322;2022-09-01T04:34:39;26.37;;;22.63;;
22254;SDS011;11296;42.684;23.322;2022-09-01T04:37:14;29.57;;;21.67;;
22254;SDS011;11296;42.684;23.322;2022-09-01T04:39:52;25.63;;;21.83;;
22254;SDS011;11296;42.684;23.322;2022-09-01T04:42:20;24.40;;;21.37;;
22254;SDS011;11296;42.684;23.322;2022-09-01T04:44:48;25.73;;;22.17;;
22254;SDS011;11296;42.684;23.322;2022-09-01T04:47:24;26.60;;;22.47;;
22254;SDS011;11296;42.684;23.322;2022-09-01T04:50:07;29.20;;;22.23;;
22254;SDS011;11296;42.684;23.322;2022-09-01T04:52:39;27.77;;;22.13;;
22254;SDS011;11296;42.684;23.322;2022-09-01T04:55:15;27.17;;;22.10;;
22254;SDS011;11296;42.684;23.322;2022-09-01T04:57:56;24.67;;;21.27;;
22254;SDS011;11296;42.684;23.322;2022-09-01T05:00:25;31.53;;;22.40;;
22254;SDS011;11296;42.684;23.322;2022-09-01T05:03:01;25.30;;;22.07;;
22254;SDS011;11296;42.684;23.322;2022-09-01T05:05:42;28.97;;;22.30;;
22254;SDS011;11296;42.684;23.322;2022-09-01T05:08:16;25.00;;;20.90;;
22254;SDS011;11296;42.684;23.322;2022-09-01T05:10:51;24.40;;;21.07;;
22254;SDS011;11296;42.684;23.322;2022-09-01T05:13:32;25.93;;;20.93;;
22254;SDS011;11296;42.684;23.322;2022-09-01T05:16:04;29.37;;;21.47;;
22254;SDS011;11296;42.684;23.322;2022-09-01T05:18:38;53.37;;;44.50;;
22254;SDS011;11296;42.684;23.322;2022-09-01T05:21:19;28.97;;;25.87;;
22254;SDS011;11296;42.684;23.322;2022-09-01T05:23:49;29.63;;;22.33;;
22254;SDS011;11296;42.684;23.322;2022-09-01T05:26:19;25.30;;;21.40;;
22254;SDS011;11296;42.684;23.322;2022-09-01T05:28:49;25.87;;;21.53;;
22254;SDS011;11296;42.684;23.322;2022-09-01T05:31:24;25.47;;;21.93;;
22254;SDS011;11296;42.684;23.322;2022-09-01T05:33:59;26.87;;;23.53;;
22254;SDS011;11296;42.684;23.322;2022-09-01T05:36:30;28.53;;;23.00;;
22254;SDS011;11296;42.684;23.322;2022-09-01T05:39:04;45.20;;;36.17;;
22254;SDS011;11296;42.684;23.322;2022-09-01T05:41:49;41.17;;;31.73;;
22254;SDS011;11296;42.684;23.322;2022-09-01T05:44:19;31.03;;;25.30;;
22254;SDS011;11296;42.684;23.322;2022-09-01T05:46:54;29.47;;;24.60;;
22254;SDS011;11296;42.684;23.322;2022-09-01T05:49:28;33.80;;;26.17;;
22254;SDS011;11296;42.684;23.322;2022-09-01T05:51:59;31.57;;;24.27;;
22254;SDS011;11296;42.684;23.322;2022-09-01T05:54:28;33.73;;;25.07;;
22254;SDS011;11296;42.684;23.322;2022-09-01T05:56:56;32.00;;;24.90;;
22254;SDS011;11296;42.684;23.322;2022-09-01T05:59:33;30.00;;;24.30;;
22254;SDS011;11296;42.684;23.322;2022-09-01T06:02:12;33.30;;;25.50;;
22254;SDS011;11296;42.684;23.322;2022-09-01T06:04:50;32.43;;;25.13;;
22254;SDS011;11296;42.684;23.322;2022-09-01T06:08:15;30.97;;;24.20;;
22254;SDS011;11296;42.684;23.322;2022-09-01T06:10:48;30.90;;;25.43;;
22254;SDS011;11296;42.684;23.322;2022-09-01T06:13:17;31.67;;;26.40;;
22254;SDS011;11296;42.684;23.322;2022-09-01T06:15:49;35.60;;;27.20;;
22254;SDS011;11296;42.684;23.322;2022-09-01T06:18:18;34.87;;;27.23;;
22254;SDS011;11296;42.684;23.322;2022-09-01T06:20:53;33.27;;;26.10;;
22254;SDS011;11296;42.684;23.322;2022-09-01T06:23:22;32.50;;;25.40;;
22254;SDS011;11296;42.684;23.322;2022-09-01T06:25:48;32.63;;;25.83;;
22254;SDS011;11296;42.684;23.322;2022-09-01T06:28:19;41.23;;;27.20;;
22254;SDS011;11296;42.684;23.322;2022-09-01T06:30:46;31.97;;;25.77;;
22254;SDS011;11296;42.684;23.322;2022-09-01T06:33:13;34.50;;;26.73;;
22254;SDS011;11296;42.684;23.322;2022-09-01T06:35:45;33.23;;;26.50;;
22254;SDS011;11296;42.684;23.322;2022-09-01T06:38:12;35.97;;;27.57;;
22254;SDS011;11296;42.684;23.322;2022-09-01T06:40:44;40.77;;;30.23;;
22254;SDS011;11296;42.684;23.322;2022-09-01T06:43:12;47.47;;;35.20;;
22254;SDS011;11296;42.684;23.322;2022-09-01T06:45:44;39.50;;;27.97;;
22254;SDS011;11296;42.684;23.322;2022-09-01T06:48:22;39.37;;;28.67;;
22254;SDS011;11296;42.684;23.322;2022-09-01T06:50:51;42.57;;;32.33;;
22254;SDS011;11296;42.684;23.322;2022-09-01T06:53:18;44.77;;;32.47;;
22254;SDS011;11296;42.684;23.322;2022-09-01T06:55:49;38.70;;;28.60;;
22254;SDS011;11296;42.684;23.322;2022-09-01T06:58:15;40.93;;;28.67;;
22254;SDS011;11296;42.684;23.322;2022-09-01T07:00:47;38.50;;;28.30;;
22254;SDS011;11296;42.684;23.322;2022-09-01T07:03:14;40.27;;;27.70;;
22254;SDS011;11296;42.684;23.322;2022-09-01T07:05:55;35.97;;;26.90;;
22254;SDS011;11296;42.684;23.322;2022-09-01T07:08:39;35.10;;;26.30;;
22254;SDS011;11296;42.684;23.322;2022-09-01T07:11:21;40.73;;;28.10;;
22254;SDS011;11296;42.684;23.322;2022-09-01T07:13:56;37.27;;;27.67;;
22254;SDS011;11296;42.684;23.322;2022-09-01T07:16:28;36.13;;;26.27;;
22254;SDS011;11296;42.684;23.322;2022-09-01T07:19:00;36.60;;;26.63;;
22254;SDS011;11296;42.684;23.322;2022-09-01T07:21:29;31.87;;;26.10;;
22254;SDS011;11296;42.684;23.322;2022-09-01T07:23:58;35.00;;;25.13;;
22254;SDS011;11296;42.684;23.322;2022-09-01T07:26:27;33.63;;;26.60;;
22254;SDS011;11296;42.684;23.322;2022-09-01T07:28:55;31.40;;;24.77;;
22254;SDS011;11296;42.684;23.322;2022-09-01T07:31:23;30.37;;;25.07;;
22254;SDS011;11296;42.684;23.322;2022-09-01T07:33:53;32.53;;;25.70;;
22254;SDS011;11296;42.684;23.322;2022-09-01T07:36:22;37.87;;;28.23;;
22254;SDS011;11296;42.684;23.322;2022-09-01T07:38:47;38.00;;;28.57;;
22254;SDS011;11296;42.684;23.322;2022-09-01T07:41:20;37.77;;;28.20;;
22254;SDS011;11296;42.684;23.322;2022-09-01T07:44:05;32.03;;;26.67;;
22254;SDS011;11296;42.684;23.322;2022-09-01T07:46:53;36.10;;;27.60;;
22254;SDS011;11296;42.684;23.322;2022-09-01T07:49:19;33.07;;;26.73;;
22254;SDS011;11296;42.684;23.322;2022-09-01T07:51:45;38.53;;;29.10;;
22254;SDS011;11296;42.684;23.322;2022-09-01T07:54:18;38.47;;;29.60;;
22254;SDS011;11296;42.684;23.322;2022-09-01T07:56:46;36.87;;;28.70;;
22254;SDS011;11296;42.684;23.322;2022-09-01T07:59:15;36.70;;;29.13;;
22254;SDS011;11296;42.684;23.322;2022-09-01T08:01:52;55.00;;;43.10;;
22254;SDS011;11296;42.684;23.322;2022-09-01T08:04:18;40.27;;;30.33;;
22254;SDS011;11296;42.684;23.322;2022-09-01T08:06:50;38.13;;;28.97;;
22254;SDS011;11296;42.684;23.322;2022-09-01T08:09:16;38.70;;;29.77;;
22254;SDS011;11296;42.684;23.322;2022-09-01T08:11:43;35.77;;;30.20;;
22254;SDS011;11296;42.684;23.322;2022-09-01T08:14:09;37.83;;;30.33;;
22254;SDS011;11296;42.684;23.322;2022-09-01T08:16:35;34.60;;;28.80;;
22254;SDS011;11296;42.684;23.322;2022-09-01T08:19:02;34.50;;;27.00;;
22254;SDS011;11296;42.684;23.322;2022-09-01T08:21:42;33.80;;;27.90;;
22254;SDS011;11296;42.684;23.322;2022-09-01T08:24:31;39.77;;;28.73;;
22254;SDS011;11296;42.684;23.322;2022-09-01T08:26:57;35.50;;;28.03;;
22254;SDS011;11296;42.684;23.322;2022-09-01T08:29:22;34.90;;;27.57;;
22254;SDS011;11296;42.684;23.322;2022-09-01T08:31:49;34.30;;;27.63;;
22254;SDS011;11296;42.684;23.322;2022-09-01T08:34:14;37.97;;;28.87;;
22254;SDS011;11296;42.684;23.322;2022-09-01T08:36:42;31.50;;;26.63;;
22254;SDS011;11296;42.684;23.322;2022-09-01T08:39:11;31.67;;;25.60;;
22254;SDS011;11296;42.684;23.322;2022-09-01T08:46:40;29.07;;;24.47;;
22254;SDS011;11296;42.684;23.322;2022-09-01T08:49:28;23.90;;;21.40;;
22254;SDS011;11296;42.684;23.322;2022-09-01T08:57:23;29.60;;;22.20;;
22254;SDS011;11296;42.684;23.322;2022-09-01T09:00:21;28.23;;;21.77;;
22254;SDS011;11296;42.684;23.322;2022-09-01T09:11:03;27.65;;;23.13;;
22254;SDS011;11296;42.684;23.322;2022-09-01T09:14:00;24.52;;;21.88;;
22254;SDS011;11296;42.684;23.322;2022-09-01T09:16:49;22.33;;;20.02;;
22254;SDS011;11296;42.684;23.322;2022-09-01T09:21:53;20.30;;;18.20;;
22254;SDS011;11296;42.684;23.322;2022-09-01T09:24:39;21.42;;;18.90;;
22254;SDS011;11296;42.684;23.322;2022-09-01T09:27:19;20.60;;;18.35;;
22254;SDS011;11296;42.684;23.322;2022-09-01T09:29:48;19.23;;;16.85;;
22254;SDS011;11296;42.684;23.322;2022-09-01T09:32:18;21.58;;;17.02;;
22254;SDS011;11296;42.684;23.322;2022-09-01T09:34:47;17.92;;;15.77;;
22254;SDS011;11296;42.684;23.322;2022-09-01T09:37:18;17.20;;;15.20;;
22254;SDS011;11296;42.684;23.322;2022-09-01T09:40:22;19.85;;;14.98;;
22254;SDS011;11296;42.684;23.322;2022-09-01T09:42:59;22.13;;;16.48;;
22254;SDS011;11296;42.684;23.322;2022-09-01T09:45:38;18.85;;;14.77;;
22254;SDS011;11296;42.684;23.322;2022-09-01T09:48:08;17.05;;;13.65;;
22254;SDS011;11296;42.684;23.322;2022-09-01T09:50:50;16.52;;;14.32;;
22254;SDS011;11296;42.684;23.322;2022-09-01T09:53:30;17.60;;;15.20;;
22254;SDS011;11296;42.684;23.322;2022-09-01T09:56:03;16.48;;;14.35;;
22254;SDS011;11296;42.684;23.322;2022-09-01T09:58:42;18.33;;;15.60;;
22254;SDS011;11296;42.684;23.322;2022-09-01T10:03:51;16.55;;;12.43;;
22254;SDS011;11296;42.684;23.322;2022-09-01T10:09:04;14.75;;;12.85;;
22254;SDS011;11296;42.684;23.322;2022-09-01T10:12:08;13.63;;;12.25;;
22254;SDS011;11296;42.684;23.322;2022-09-01T10:18:08;13.02;;;11.65;;
22254;SDS011;11296;42.684;23.322;2022-09-01T10:21:00;13.63;;;12.10;;
22254;SDS011;11296;42.684;23.322;2022-09-01T10:23:28;13.50;;;12.18;;
22254;SDS011;11296;42.684;23.322;2022-09-01T10:26:01;16.15;;;13.27;;
22254;SDS011;11296;42.684;23.322;2022-09-01T10:28:38;29.42;;;25.60;;
22254;SDS011;11296;42.684;23.322;2022-09-01T10:31:27;14.95;;;13.55;;
22254;SDS011;11296;42.684;23.322;2022-09-01T10:33:57;14.82;;;12.35;;
22254;SDS011;11296;42.684;23.322;2022-09-01T10:36:25;14.60;;;13.27;;
22254;SDS011;11296;42.684;23.322;2022-09-01T10:38:53;16.77;;;13.20;;
22254;SDS011;11296;42.684;23.322;2022-09-01T10:44:25;14.27;;;12.77;;
22254;SDS011;11296;42.684;23.322;2022-09-01T10:46:55;15.73;;;12.82;;
22254;SDS011;11296;42.684;23.322;2022-09-01T10:51:55;17.70;;;13.07;;
22254;SDS011;11296;42.684;23.322;2022-09-01T10:59:45;13.32;;;11.98;;
22254;SDS011;11296;42.684;23.322;2022-09-01T11:02:13;15.57;;;13.20;;
22254;SDS011;11296;42.684;23.322;2022-09-01T11:30:40;12.13;;;10.85;;
22254;SDS011;11296;42.684;23.322;2022-09-01T11:36:15;14.63;;;11.52;;
22254;SDS011;11296;42.684;23.322;2022-09-01T11:39:06;12.65;;;11.32;;
22254;SDS011;11296;42.684;23.322;2022-09-01T11:41:49;11.93;;;10.77;;
22254;SDS011;11296;42.684;23.322;2022-09-01T11:44:39;13.57;;;11.10;;
22254;SDS011;11296;42.684;23.322;2022-09-01T11:47:37;14.30;;;10.98;;
22254;SDS011;11296;42.684;23.322;2022-09-01T11:50:16;13.77;;;12.48;;
22254;SDS011;11296;42.684;23.322;2022-09-01T11:52:56;11.45;;;10.35;;
22254;SDS011;11296;42.684;23.322;2022-09-01T11:55:33;13.77;;;11.10;;
22254;SDS011;11296;42.684;23.322;2022-09-01T11:58:28;13.43;;;11.10;;
22254;SDS011;11296;42.684;23.322;2022-09-01T12:01:17;11.40;;;10.40;;
22254;SDS011;11296;42.684;23.322;2022-09-01T12:03:46;11.48;;;10.32;;
22254;SDS011;11296;42.684;23.322;2022-09-01T12:06:20;11.55;;;10.45;;
22254;SDS011;11296;42.684;23.322;2022-09-01T12:08:59;12.63;;;10.15;;
22254;SDS011;11296;42.684;23.322;2022-09-01T12:11:31;12.45;;;11.30;;
22254;SDS011;11296;42.684;23.322;2022-09-01T12:14:00;11.93;;;10.82;;
22254;SDS011;11296;42.684;23.322;2022-09-01T12:16:32;13.23;;;11.25;;
22254;SDS011;11296;42.684;23.322;2022-09-01T12:19:01;12.20;;;11.10;;
22254;SDS011;11296;42.684;23.322;2022-09-01T12:21:33;14.35;;;10.82;;
22254;SDS011;11296;42.684;23.322;2022-09-01T12:24:14;13.15;;;11.30;;
22254;SDS011;11296;42.684;23.322;2022-09-01T12:26:42;13.10;;;11.75;;
22254;SDS011;11296;42.684;23.322;2022-09-01T12:29:10;12.45;;;11.30;;
22254;SDS011;11296;42.684;23.322;2022-09-01T12:31:39;13.52;;;12.23;;
22254;SDS011;11296;42.684;23.322;2022-09-01T12:34:22;15.30;;;12.13;;
22254;SDS011;11296;42.684;23.322;2022-09-01T12:39:32;13.88;;;11.75;;
22254;SDS011;11296;42.684;23.322;2022-09-01T12:42:04;12.93;;;11.73;;
22254;SDS011;11296;42.684;23.322;2022-09-01T12:44:41;14.30;;;12.10;;
22254;SDS011;11296;42.684;23.322;2022-09-01T12:47:42;13.50;;;12.10;;
22254;SDS011;11296;42.684;23.322;2022-09-01T12:52:47;14.10;;;12.43;;
22254;SDS011;11296;42.684;23.322;2022-09-01T12:55:19;14.05;;;12.55;;
22254;SDS011;11296;42.684;23.322;2022-09-01T12:57:58;20.42;;;13.27;;
22254;SDS011;11296;42.684;23.322;2022-09-01T13:00:26;14.70;;;12.25;;
22254;SDS011;11296;42.684;23.322;2022-09-01T13:05:34;13.95;;;12.43;;
22254;SDS011;11296;42.684;23.322;2022-09-01T13:08:08;13.88;;;12.52;;
22254;SDS011;11296;42.684;23.322;2022-09-01T13:10:42;17.50;;;13.18;;
22254;SDS011;11296;42.684;23.322;2022-09-01T13:13:09;17.60;;;12.63;;
22254;SDS011;11296;42.684;23.322;2022-09-01T13:15:37;15.15;;;13.68;;
22254;SDS011;11296;42.684;23.322;2022-09-01T13:18:08;14.98;;;13.60;;
22254;SDS011;11296;42.684;23.322;2022-09-01T13:20:34;17.75;;;13.95;;
22254;SDS011;11296;42.684;23.322;2022-09-01T13:23:00;16.30;;;14.35;;
22254;SDS011;11296;42.684;23.322;2022-09-01T13:25:26;18.00;;;16.10;;
22254;SDS011;11296;42.684;23.322;2022-09-01T13:27:59;18.40;;;16.42;;
22254;SDS011;11296;42.684;23.322;2022-09-01T13:30:28;19.75;;;17.95;;
22254;SDS011;11296;42.684;23.322;2022-09-01T13:32:54;15.98;;;14.43;;
22254;SDS011;11296;42.684;23.322;2022-09-01T13:38:12;16.45;;;14.80;;
22254;SDS011;11296;42.684;23.322;2022-09-01T13:40:41;16.30;;;14.50;;
22254;SDS011;11296;42.684;23.322;2022-09-01T13:43:09;16.20;;;14.50;;
22254;SDS011;11296;42.684;23.322;2022-09-01T13:45:36;17.23;;;15.52;;
22254;SDS011;11296;42.684;23.322;2022-09-01T13:48:02;15.77;;;14.38;;
22254;SDS011;11296;42.684;23.322;2022-09-01T13:50:28;16.27;;;14.60;;
22254;SDS011;11296;42.684;23.322;2022-09-01T13:52:54;15.52;;;13.95;;
22254;SDS011;11296;42.684;23.322;2022-09-01T13:55:24;14.70;;;13.50;;
22254;SDS011;11296;42.684;23.322;2022-09-01T13:57:53;15.88;;;14.43;;
22254;SDS011;11296;42.684;23.322;2022-09-01T14:00:21;14.93;;;13.38;;
22254;SDS011;11296;42.684;23.322;2022-09-01T14:02:50;13.48;;;12.18;;
22254;SDS011;11296;42.684;23.322;2022-09-01T14:05:22;13.43;;;12.00;;
22254;SDS011;11296;42.684;23.322;2022-09-01T14:07:52;11.30;;;10.27;;
22254;SDS011;11296;42.684;23.322;2022-09-01T14:10:18;11.43;;;10.30;;
22254;SDS011;11296;42.684;23.322;2022-09-01T14:12:45;9.80;;;8.90;;
22254;SDS011;11296;42.684;23.322;2022-09-01T14:15:12;10.93;;;9.85;;
22254;SDS011;11296;42.684;23.322;2022-09-01T14:17:39;10.75;;;9.77;;
22254;SDS011;11296;42.684;23.322;2022-09-01T14:20:09;11.68;;;10.57;;
22254;SDS011;11296;42.684;23.322;2022-09-01T14:22:38;12.13;;;10.88;;
22254;SDS011;11296;42.684;23.322;2022-09-01T14:25:05;14.57;;;10.85;;
22254;SDS011;11296;42.684;23.322;2022-09-01T14:27:34;12.45;;;11.10;;
22254;SDS011;11296;42.684;23.322;2022-09-01T14:30:00;14.07;;;11.50;;
22254;SDS011;11296;42.684;23.322;2022-09-01T14:32:27;12.82;;;11.57;;
22254;SDS011;11296;42.684;23.322;2022-09-01T14:34:54;15.48;;;12.55;;
22254;SDS011;11296;42.684;23.322;2022-09-01T14:37:21;15.68;;;12.15;;
22254;SDS011;11296;42.684;23.322;2022-09-01T14:39:48;14.35;;;11.80;;
22254;SDS011;11296;42.684;23.322;2022-09-01T14:42:15;13.70;;;12.50;;
22254;SDS011;11296;42.684;23.322;2022-09-01T14:44:41;14.00;;;12.57;;
22254;SDS011;11296;42.684;23.322;2022-09-01T14:47:10;16.83;;;12.43;;
22254;SDS011;11296;42.684;23.322;2022-09-01T14:49:42;13.70;;;12.35;;
22254;SDS011;11296;42.684;23.322;2022-09-01T14:52:09;14.50;;;12.25;;
22254;SDS011;11296;42.684;23.322;2022-09-01T14:54:43;14.85;;;12.32;;
22254;SDS011;11296;42.684;23.322;2022-09-01T14:57:09;15.18;;;12.23;;
22254;SDS011;11296;42.684;23.322;2022-09-01T14:59:36;15.77;;;12.35;;
22254;SDS011;11296;42.684;23.322;2022-09-01T15:02:02;14.20;;;12.65;;
22254;SDS011;11296;42.684;23.322;2022-09-01T15:04:30;14.48;;;12.88;;
22254;SDS011;11296;42.684;23.322;2022-09-01T15:06:56;15.65;;;12.90;;
22254;SDS011;11296;42.684;23.322;2022-09-01T15:09:51;14.35;;;12.48;;
22254;SDS011;11296;42.684;23.322;2022-09-01T15:12:17;13.75;;;12.32;;
22254;SDS011;11296;42.684;23.322;2022-09-01T15:14:47;14.82;;;12.88;;
22254;SDS011;11296;42.684;23.322;2022-09-01T15:17:16;14.10;;;12.80;;
22254;SDS011;11296;42.684;23.322;2022-09-01T15:19:48;13.50;;;12.25;;
22254;SDS011;11296;42.684;23.322;2022-09-01T15:22:52;14.25;;;12.75;;
22254;SDS011;11296;42.684;23.322;2022-09-01T15:25:24;13.68;;;12.27;;
22254;SDS011;11296;42.684;23.322;2022-09-01T15:27:51;13.63;;;12.07;;
22254;SDS011;11296;42.684;23.322;2022-09-01T15:30:38;14.20;;;12.77;;
22254;SDS011;11296;42.684;23.322;2022-09-01T15:33:12;14.65;;;13.15;;
22254;SDS011;11296;42.684;23.322;2022-09-01T15:35:42;14.27;;;12.63;;
22254;SDS011;11296;42.684;23.322;2022-09-01T15:38:09;15.05;;;12.85;;
22254;SDS011;11296;42.684;23.322;2022-09-01T15:40:38;15.63;;;12.15;;
22254;SDS011;11296;42.684;23.322;2022-09-01T15:43:20;13.77;;;11.82;;
22254;SDS011;11296;42.684;23.322;2022-09-01T15:45:51;15.68;;;12.70;;
22254;SDS011;11296;42.684;23.322;2022-09-01T15:48:29;14.65;;;13.00;;
22254;SDS011;11296;42.684;23.322;2022-09-01T15:51:26;14.43;;;13.02;;
22254;SDS011;11296;42.684;23.322;2022-09-01T15:54:02;15.65;;;13.32;;
22254;SDS011;11296;42.684;23.322;2022-09-01T15:56:34;14.48;;;12.70;;
22254;SDS011;11296;42.684;23.322;2022-09-01T15:59:07;14.18;;;12.93;;
22254;SDS011;11296;42.684;23.322;2022-09-01T16:01:40;21.27;;;14.23;;
22254;SDS011;11296;42.684;23.322;2022-09-01T16:04:09;15.63;;;14.10;;
22254;SDS011;11296;42.684;23.322;2022-09-01T16:06:41;16.23;;;14.57;;
22254;SDS011;11296;42.684;23.322;2022-09-01T16:09:12;14.88;;;13.40;;
22254;SDS011;11296;42.684;23.322;2022-09-01T16:11:40;14.80;;;13.40;;
22254;SDS011;11296;42.684;23.322;2022-09-01T16:14:08;14.48;;;12.68;;
22254;SDS011;11296;42.684;23.322;2022-09-01T16:20:01;14.52;;;12.10;;
22254;SDS011;11296;42.684;23.322;2022-09-01T16:22:39;12.48;;;11.25;;
22254;SDS011;11296;42.684;23.322;2022-09-01T16:25:14;11.63;;;10.23;;
22254;SDS011;11296;42.684;23.322;2022-09-01T16:27:49;11.23;;;9.77;;
22254;SDS011;11296;42.684;23.322;2022-09-01T16:30:20;14.68;;;10.35;;
22254;SDS011;11296;42.684;23.322;2022-09-01T16:32:48;14.38;;;11.20;;
22254;SDS011;11296;42.684;23.322;2022-09-01T16:35:16;16.38;;;10.63;;
22254;SDS011;11296;42.684;23.322;2022-09-01T16:37:50;13.88;;;11.00;;
22254;SDS011;11296;42.684;23.322;2022-09-01T16:40:38;14.35;;;12.10;;
22254;SDS011;11296;42.684;23.322;2022-09-01T16:54:54;17.00;;;14.67;;
22254;SDS011;11296;42.684;23.322;2022-09-01T17:00:04;18.00;;;14.93;;
22254;SDS011;11296;42.684;23.322;2022-09-01T17:08:26;15.03;;;13.53;;
22254;SDS011;11296;42.684;23.322;2022-09-01T17:13:59;15.63;;;13.93;;
22254;SDS011;11296;42.684;23.322;2022-09-01T17:16:28;15.53;;;13.87;;
22254;SDS011;11296;42.684;23.322;2022-09-01T17:19:03;29.33;;;26.30;;
22254;SDS011;11296;42.684;23.322;2022-09-01T17:24:37;18.07;;;15.00;;
22254;SDS011;11296;42.684;23.322;2022-09-01T17:30:07;15.77;;;13.27;;
22254;SDS011;11296;42.684;23.322;2022-09-01T17:35:57;84.87;;;75.77;;
22254;SDS011;11296;42.684;23.322;2022-09-01T17:44:10;18.13;;;14.17;;
22254;SDS011;11296;42.684;23.322;2022-09-01T17:50:14;19.07;;;15.33;;
22254;SDS011;11296;42.684;23.322;2022-09-01T17:55:39;18.23;;;13.87;;
22254;SDS011;11296;42.684;23.322;2022-09-01T17:58:09;15.80;;;13.90;;
22254;SDS011;11296;42.684;23.322;2022-09-01T18:06:11;18.87;;;13.87;;
22254;SDS011;11296;42.684;23.322;2022-09-01T18:08:45;21.60;;;19.40;;
22254;SDS011;11296;42.684;23.322;2022-09-01T18:11:15;15.03;;;13.53;;
22254;SDS011;11296;42.684;23.322;2022-09-01T18:16:25;17.07;;;12.90;;
22254;SDS011;11296;42.684;23.322;2022-09-01T18:18:53;15.53;;;13.47;;
22254;SDS011;11296;42.684;23.322;2022-09-01T18:21:24;16.33;;;13.07;;
22254;SDS011;11296;42.684;23.322;2022-09-01T18:23:57;13.80;;;12.33;;
22254;SDS011;11296;42.684;23.322;2022-09-01T18:26:34;15.67;;;12.70;;
22254;SDS011;11296;42.684;23.322;2022-09-01T18:29:03;14.70;;;12.50;;
22254;SDS011;11296;42.684;23.322;2022-09-01T18:55:49;13.63;;;12.23;;
22254;SDS011;11296;42.684;23.322;2022-09-01T18:58:30;12.83;;;11.53;;
22254;SDS011;11296;42.684;23.322;2022-09-01T19:01:21;15.50;;;12.17;;
22254;SDS011;11296;42.684;23.322;2022-09-01T19:04:02;13.93;;;11.80;;
22254;SDS011;11296;42.684;23.322;2022-09-01T19:09:12;15.33;;;12.00;;
22254;SDS011;11296;42.684;23.322;2022-09-01T19:14:45;14.60;;;13.07;;
22254;SDS011;11296;42.684;23.322;2022-09-01T19:19:56;15.03;;;13.33;;
22254;SDS011;11296;42.684;23.322;2022-09-01T19:22:35;14.47;;;13.03;;
22254;SDS011;11296;42.684;23.322;2022-09-01T19:25:08;15.97;;;12.53;;
22254;SDS011;11296;42.684;23.322;2022-09-01T19:28:07;16.20;;;12.73;;
22254;SDS011;11296;42.684;23.322;2022-09-01T19:33:32;16.13;;;14.33;;
22254;SDS011;11296;42.684;23.322;2022-09-01T19:36:04;18.53;;;14.20;;
22254;SDS011;11296;42.684;23.322;2022-09-01T19:38:33;15.57;;;13.83;;
22254;SDS011;11296;42.684;23.322;2022-09-01T19:41:14;16.13;;;14.17;;
22254;SDS011;11296;42.684;23.322;2022-09-01T19:43:48;18.67;;;14.50;;
22254;SDS011;11296;42.684;23.322;2022-09-01T19:46:30;17.80;;;15.93;;
22254;SDS011;11296;42.684;23.322;2022-09-01T19:49:05;15.60;;;13.07;;
22254;SDS011;11296;42.684;23.322;2022-09-01T19:51:42;15.60;;;13.47;;
22254;SDS011;11296;42.684;23.322;2022-09-01T19:54:24;15.63;;;13.97;;
22254;SDS011;11296;42.684;23.322;2022-09-01T19:57:02;17.87;;;13.63;;
22254;SDS011;11296;42.684;23.322;2022-09-01T20:02:37;15.37;;;13.67;;
22254;SDS011;11296;42.684;23.322;2022-09-01T20:10:59;16.33;;;14.73;;
22254;SDS011;11296;42.684;23.322;2022-09-01T20:13:45;17.30;;;14.07;;
22254;SDS011;11296;42.684;23.322;2022-09-01T20:21:54;16.77;;;14.67;;
22254;SDS011;11296;42.684;23.322;2022-09-01T20:24:53;15.23;;;13.63;;
22254;SDS011;11296;42.684;23.322;2022-09-01T20:30:19;16.63;;;13.83;;
22254;SDS011;11296;42.684;23.322;2022-09-01T20:35:30;16.63;;;13.83;;
22254;SDS011;11296;42.684;23.322;2022-09-01T20:37:58;15.20;;;13.60;;
22254;SDS011;11296;42.684;23.322;2022-09-01T20:41:12;19.47;;;14.70;;
22254;SDS011;11296;42.684;23.322;2022-09-01T20:43:48;16.90;;;14.17;;
22254;SDS011;11296;42.684;23.322;2022-09-01T20:46:18;17.90;;;14.90;;
22254;SDS011;11296;42.684;23.322;2022-09-01T20:48:44;17.20;;;14.97;;
22254;SDS011;11296;42.684;23.322;2022-09-01T20:51:17;17.43;;;14.10;;
22254;SDS011;11296;42.684;23.322;2022-09-01T21:04:37;16.20;;;13.40;;
22254;SDS011;11296;42.684;23.322;2022-09-01T21:07:24;15.73;;;13.97;;
22254;SDS011;11296;42.684;23.322;2022-09-01T21:15:26;16.97;;;14.03;;
22254;SDS011;11296;42.684;23.322;2022-09-01T21:18:00;16.60;;;14.33;;
22254;SDS011;11296;42.684;23.322;2022-09-01T21:20:43;17.10;;;14.33;;
22254;SDS011;11296;42.684;23.322;2022-09-01T21:23:37;16.97;;;15.13;;
22254;SDS011;11296;42.684;23.322;2022-09-01T21:26:03;16.30;;;14.53;;
22254;SDS011;11296;42.684;23.322;2022-09-01T21:28:29;18.60;;;14.33;;
22254;SDS011;11296;42.684;23.322;2022-09-01T21:30:56;17.53;;;14.57;;
22254;SDS011;11296;42.684;23.322;2022-09-01T21:33:25;16.03;;;14.20;;
22254;SDS011;11296;42.684;23.322;2022-09-01T21:35:55;17.23;;;14.40;;
22254;SDS011;11296;42.684;23.322;2022-09-01T21:38:23;16.77;;;13.87;;
22254;SDS011;11296;42.684;23.322;2022-09-01T21:40:49;15.87;;;14.27;;
22254;SDS011;11296;42.684;23.322;2022-09-01T21:43:23;15.87;;;14.27;;
22254;SDS011;11296;42.684;23.322;2022-09-01T21:45:52;16.67;;;14.80;;
22254;SDS011;11296;42.684;23.322;2022-09-01T21:48:18;17.77;;;14.93;;
22254;SDS011;11296;42.684;23.322;2022-09-01T21:50:44;15.93;;;14.33;;
22254;SDS011;11296;42.684;23.322;2022-09-01T21:53:10;16.40;;;14.40;;
22254;SDS011;11296;42.684;23.322;2022-09-01T21:55:38;18.93;;;14.47;;
22254;SDS011;11296;42.684;23.322;2022-09-01T21:58:04;17.03;;;14.23;;
22254;SDS011;11296;42.684;23.322;2022-09-01T22:00:32;16.27;;;13.37;;
22254;SDS011;11296;42.684;23.322;2022-09-01T22:02:59;15.77;;;13.90;;
22254;SDS011;11296;42.684;23.322;2022-09-01T22:05:26;16.40;;;13.80;;
22254;SDS011;11296;42.684;23.322;2022-09-01T22:07:53;15.47;;;13.73;;
22254;SDS011;11296;42.684;23.322;2022-09-01T22:10:21;15.27;;;13.53;;
22254;SDS011;11296;42.684;23.322;2022-09-01T22:12:49;14.83;;;13.30;;
22254;SDS011;11296;42.684;23.322;2022-09-01T22:15:18;14.43;;;12.43;;